Time;durP1;ratioP1;P1;durP2;ratioP2;P2;SDS_P1;SDS_P2;PMS_P1;PMS_P2;Temp;Humidity;BMP_temperature;BMP_pressure;BME280_temperature;BME280_humidity;BME280_pressure;Samples;Min_cycle;Max_cycle;Signal;HPM_P1;HPM_P2
2022/12/14 00:01:39;;;;;;;18.83;11.47;;;-3.80;1.00;;;;;;5009346;28;20208;-59
2022/12/14 00:04:06;;;;;;;22.93;12.60;;;-3.80;1.00;;;;;;5017444;28;20631;-60
2022/12/14 00:06:33;;;;;;;28.93;13.03;;;-3.80;1.00;;;;;;5015289;28;20275;-60
2022/12/14 00:09:03;;;;;;;24.03;12.47;;;-3.90;1.00;;;;;;5005163;28;20195;-60
2022/12/14 00:11:32;;;;;;;23.67;11.77;;;-3.90;1.00;;;;;;5001762;28;20203;-60
2022/12/14 00:14:01;;;;;;;21.17;10.97;;;-3.90;1.00;;;;;;5014271;28;20197;-59
2022/12/14 00:16:32;;;;;;;23.63;11.37;;;-3.90;1.00;;;;;;5017873;28;20201;-61
2022/12/14 00:19:00;;;;;;;22.97;11.97;;;-3.90;1.00;;;;;;5000612;28;20587;-58
2022/12/14 00:21:27;;;;;;;22.57;11.40;;;-3.80;1.00;;;;;;5016256;28;20235;-60
2022/12/14 00:23:56;;;;;;;22.50;12.00;;;-3.80;1.00;;;;;;5008831;28;20228;-60
2022/12/14 00:26:26;;;;;;;22.33;12.10;;;-3.70;1.00;;;;;;5000665;28;20247;-60
2022/12/14 00:28:54;;;;;;;21.77;11.77;;;-3.70;1.00;;;;;;5017553;28;20323;-61
2022/12/14 00:31:22;;;;;;;19.57;11.23;;;-3.70;1.00;;;;;;5015851;28;20236;-60
2022/12/14 00:33:50;;;;;;;25.40;11.40;;;-3.70;1.00;;;;;;5005344;28;20220;-60
2022/12/14 00:36:17;;;;;;;19.47;10.10;;;-3.70;1.00;;;;;;5001856;28;20807;-60
2022/12/14 00:38:44;;;;;;;20.07;10.57;;;-3.70;1.00;;;;;;5015247;28;20556;-60
2022/12/14 00:41:11;;;;;;;23.57;12.40;;;-3.70;1.00;;;;;;5005967;28;20356;-60
2022/12/14 00:43:39;;;;;;;28.03;14.70;;;-3.70;1.00;;;;;;4999965;28;20212;-61
2022/12/14 00:46:06;;;;;;;30.30;16.53;;;-3.70;1.00;;;;;;5016533;28;20267;-61
2022/12/14 00:48:34;;;;;;;18.13;10.40;;;-3.60;1.00;;;;;;5016257;28;20201;-62
2022/12/14 00:51:01;;;;;;;20.27;9.97;;;-3.60;1.00;;;;;;5017025;28;20287;-60
2022/12/14 00:53:28;;;;;;;19.90;11.40;;;-3.70;1.00;;;;;;5016693;28;20207;-60
2022/12/14 00:55:56;;;;;;;17.67;9.93;;;-3.80;1.00;;;;;;5017690;28;20193;-60
2022/12/14 00:58:23;;;;;;;20.40;10.37;;;-3.80;1.00;;;;;;5014293;28;20279;-60
2022/12/14 01:01:11;;;;;;;19.33;9.27;;;-3.80;1.00;;;;;;5015416;28;20203;-60
2022/12/14 01:03:38;;;;;;;17.67;9.67;;;-3.80;1.00;;;;;;4996756;28;20232;-61
2022/12/14 01:06:05;;;;;;;17.43;10.03;;;-3.80;1.00;;;;;;5018812;28;20212;-60
2022/12/14 01:08:35;;;;;;;15.33;9.10;;;-3.90;1.00;;;;;;5017466;28;20211;-60
2022/12/14 01:11:07;;;;;;;18.27;9.83;;;-3.90;1.00;;;;;;5017577;28;20196;-61
2022/12/14 01:13:35;;;;;;;19.30;9.53;;;-3.90;1.00;;;;;;4995859;28;20184;-60
2022/12/14 01:16:11;;;;;;;17.03;8.93;;;-3.90;1.00;;;;;;4999531;28;20249;-60
2022/12/14 01:18:40;;;;;;;18.37;10.07;;;-4.00;1.00;;;;;;5018026;28;20668;-60
2022/12/14 01:21:27;;;;;;;17.03;9.20;;;-3.90;1.00;;;;;;5014122;28;20192;-61
2022/12/14 01:23:57;;;;;;;16.87;9.17;;;-4.00;1.00;;;;;;4999975;28;20228;-61
2022/12/14 01:26:25;;;;;;;22.50;11.37;;;-3.90;1.00;;;;;;5008122;28;20200;-61
2022/12/14 01:28:56;;;;;;;16.90;9.90;;;-3.80;1.00;;;;;;5007152;28;20533;-60
2022/12/14 01:31:28;;;;;;;18.50;9.80;;;-3.80;1.00;;;;;;5005711;28;20291;-59
2022/12/14 01:33:55;;;;;;;17.70;9.23;;;-3.80;1.00;;;;;;5016172;28;20682;-61
2022/12/14 01:36:25;;;;;;;17.20;8.77;;;-3.90;1.00;;;;;;5011506;28;20196;-60
2022/12/14 01:38:58;;;;;;;16.60;8.97;;;-3.90;1.00;;;;;;4999635;28;20249;-60
2022/12/14 01:41:43;;;;;;;19.73;9.60;;;-3.80;1.00;;;;;;5018129;28;20196;-59
2022/12/14 01:44:10;;;;;;;16.27;9.80;;;-3.90;1.00;;;;;;5016701;28;20207;-60
2022/12/14 01:46:48;;;;;;;17.33;9.53;;;-3.80;1.00;;;;;;5013830;28;20211;-59
2022/12/14 01:49:21;;;;;;;21.03;9.33;;;-3.80;1.00;;;;;;5015009;28;20184;-60
2022/12/14 01:51:59;;;;;;;16.17;9.03;;;-3.90;1.00;;;;;;5014663;28;20224;-60
2022/12/14 01:54:29;;;;;;;17.97;9.60;;;-3.90;1.00;;;;;;5015661;28;20266;-60
2022/12/14 01:56:57;;;;;;;17.23;9.13;;;-3.90;1.00;;;;;;4984402;28;20204;-60
2022/12/14 01:59:30;;;;;;;19.90;9.13;;;-3.80;1.00;;;;;;5015652;28;20679;-60
2022/12/14 02:01:59;;;;;;;16.70;8.73;;;-3.80;1.00;;;;;;5013518;23;20201;-63
2022/12/14 02:04:27;;;;;;;15.80;8.73;;;-3.90;1.00;;;;;;5048681;28;20226;-65
2022/12/14 02:06:54;;;;;;;14.87;8.47;;;-3.90;1.00;;;;;;5050257;28;20670;-64
2022/12/14 02:09:32;;;;;;;15.90;8.83;;;-4.00;1.00;;;;;;5048859;28;20391;-64
2022/12/14 02:12:07;;;;;;;16.43;8.87;;;-4.00;1.00;;;;;;5050073;28;20196;-63
2022/12/14 02:14:34;;;;;;;13.70;8.73;;;-4.00;1.00;;;;;;5054846;28;20213;-63
2022/12/14 02:17:03;;;;;;;15.50;8.37;;;-4.20;1.00;;;;;;5053285;28;20199;-63
2022/12/14 02:19:30;;;;;;;16.20;8.67;;;-4.20;1.00;;;;;;5054104;28;20327;-63
2022/12/14 02:22:31;;;;;;;15.07;9.03;;;-4.20;1.00;;;;;;5050998;28;20241;-64
2022/12/14 02:25:25;;;;;;;17.60;8.27;;;-4.20;1.00;;;;;;5034695;28;20190;-64
2022/12/14 02:28:09;;;;;;;16.87;9.33;;;-4.20;1.00;;;;;;5053337;28;20457;-65
2022/12/14 02:30:39;;;;;;;16.67;9.07;;;-4.20;1.00;;;;;;5051512;28;20363;-64
2022/12/14 02:33:09;;;;;;;15.53;8.90;;;-4.20;1.00;;;;;;5050114;28;20278;-64
2022/12/14 02:35:58;;;;;;;16.63;9.70;;;-4.30;1.00;;;;;;5051326;28;20195;-64
2022/12/14 02:39:07;;;;;;;16.43;9.07;;;-4.30;1.00;;;;;;5048433;28;20250;-64
2022/12/14 02:41:50;;;;;;;16.77;8.57;;;-4.30;1.00;;;;;;5009382;28;20647;-65
2022/12/14 02:44:25;;;;;;;14.50;8.77;;;-4.30;1.00;;;;;;5054393;28;20712;-64
2022/12/14 02:46:58;;;;;;;16.33;9.33;;;-4.30;1.00;;;;;;5054095;28;20196;-64
2022/12/14 02:49:56;;;;;;;16.33;8.73;;;-4.30;1.00;;;;;;5049294;28;20176;-64
2022/12/14 02:52:38;;;;;;;16.90;9.33;;;-4.30;1.00;;;;;;5051330;28;20199;-65
2022/12/14 02:55:10;;;;;;;21.90;10.70;;;-4.30;1.00;;;;;;5052130;28;21163;-64
2022/12/14 02:57:51;;;;;;;16.67;9.23;;;-4.30;1.00;;;;;;5055161;28;20199;-65
2022/12/14 03:00:18;;;;;;;16.53;9.27;;;-4.20;1.00;;;;;;5054255;28;20674;-65
2022/12/14 03:02:47;;;;;;;17.30;9.27;;;-4.20;1.00;;;;;;5042614;28;20336;-64
2022/12/14 03:05:15;;;;;;;17.87;9.17;;;-4.20;1.00;;;;;;5038480;28;20220;-64
2022/12/14 03:08:15;;;;;;;17.57;9.73;;;-4.20;1.00;;;;;;5038653;28;20545;-65
2022/12/14 03:10:50;;;;;;;17.90;9.30;;;-4.10;1.00;;;;;;5005041;28;20691;-64
2022/12/14 03:13:26;;;;;;;15.17;8.37;;;-4.10;1.00;;;;;;5036478;28;20661;-65
2022/12/14 03:16:13;;;;;;;17.37;8.17;;;-4.20;1.00;;;;;;5040188;28;20195;-68
2022/12/14 03:18:49;;;;;;;13.97;8.30;;;-4.20;1.00;;;;;;5039742;28;20208;-61
2022/12/14 03:21:24;;;;;;;15.80;8.83;;;-4.30;1.00;;;;;;5047840;28;20625;-61
2022/12/14 03:23:51;;;;;;;15.37;8.00;;;-4.30;1.00;;;;;;5034938;28;20206;-61
2022/12/14 03:26:39;;;;;;;15.60;8.33;;;-4.40;1.00;;;;;;5032144;28;20253;-62
2022/12/14 03:29:34;;;;;;;16.57;9.70;;;-4.40;1.00;;;;;;5042661;28;20215;-62
2022/12/14 03:32:11;;;;;;;16.73;9.40;;;-4.30;1.00;;;;;;5035791;28;20209;-67
2022/12/14 03:35:01;;;;;;;15.03;9.03;;;-4.30;1.00;;;;;;5035861;28;20324;-62
2022/12/14 03:37:35;;;;;;;15.03;9.23;;;-4.20;1.00;;;;;;5046986;28;20200;-62
2022/12/14 03:40:03;;;;;;;15.67;9.17;;;-4.20;1.00;;;;;;5040398;28;20737;-61
2022/12/14 03:42:52;;;;;;;13.57;8.50;;;-4.10;1.00;;;;;;5041407;28;20219;-61
2022/12/14 03:45:27;;;;;;;14.20;8.20;;;-4.10;1.00;;;;;;5044389;28;20655;-61
2022/12/14 03:48:06;;;;;;;15.50;8.50;;;-4.10;1.00;;;;;;5045410;28;20658;-61
2022/12/14 03:51:05;;;;;;;17.60;7.90;;;-4.10;1.00;;;;;;5042485;28;20581;-60
2022/12/14 03:53:51;;;;;;;13.57;7.57;;;-4.10;1.00;;;;;;5051332;28;20211;-62
2022/12/14 03:56:30;;;;;;;13.97;7.47;;;-4.10;1.00;;;;;;5042650;28;20199;-64
2022/12/14 03:59:04;;;;;;;14.67;8.30;;;-4.10;1.00;;;;;;5019073;28;20203;-64
2022/12/14 04:01:31;;;;;;;13.73;8.23;;;-4.10;1.00;;;;;;5044580;28;20195;-64
2022/12/14 04:04:08;;;;;;;12.47;6.97;;;-4.10;1.00;;;;;;5041869;28;20227;-64
2022/12/14 04:06:45;;;;;;;11.60;7.00;;;-4.10;1.00;;;;;;5039647;28;20191;-64
2022/12/14 04:09:29;;;;;;;12.50;7.73;;;-4.00;1.00;;;;;;5016661;28;20294;-64
2022/12/14 04:21:12;;;;;;;16.87;8.53;;;-3.80;1.00;;;;;;5042775;28;20242;-64
2022/12/14 04:26:36;;;;;;;14.30;8.00;;;-4.00;1.00;;;;;;5046294;28;20670;-64
2022/12/14 04:32:04;;;;;;;15.60;8.93;;;-3.90;1.00;;;;;;5057494;28;20224;-64
2022/12/14 04:34:33;;;;;;;14.77;8.43;;;-3.90;1.00;;;;;;5042954;28;20249;-64
2022/12/14 04:37:04;;;;;;;14.23;9.20;;;-3.80;1.00;;;;;;5044178;28;20192;-64
2022/12/14 04:39:46;;;;;;;13.63;8.23;;;-3.70;1.00;;;;;;5037804;28;20254;-64
2022/12/14 04:42:15;;;;;;;13.13;8.60;;;-3.70;1.00;;;;;;5040733;28;20685;-64
2022/12/14 04:44:48;;;;;;;16.93;8.63;;;-3.70;1.00;;;;;;5044858;28;20191;-64
2022/12/14 04:47:17;;;;;;;12.80;8.27;;;-3.70;1.00;;;;;;5042389;28;20640;-64
2022/12/14 04:49:44;;;;;;;11.50;7.27;;;-3.70;1.00;;;;;;5041244;28;20597;-63
2022/12/14 04:52:20;;;;;;;13.60;8.43;;;-3.70;1.00;;;;;;5042086;28;20242;-64
2022/12/14 04:54:55;;;;;;;13.50;8.17;;;-3.60;1.00;;;;;;5059244;28;20238;-64
2022/12/14 04:58:00;;;;;;;16.57;8.47;;;-3.70;1.00;;;;;;5041488;28;20278;-66
2022/12/14 05:00:31;;;;;;;14.17;8.20;;;-3.70;1.00;;;;;;4982056;28;20550;-64
2022/12/14 05:03:17;;;;;;;16.47;8.57;;;-3.60;1.00;;;;;;5031304;28;20581;-64
2022/12/14 05:06:02;;;;;;;13.80;7.60;;;-3.50;1.00;;;;;;5046125;28;20297;-64
2022/12/14 05:08:43;;;;;;;15.13;8.90;;;-3.50;1.00;;;;;;5036591;28;20701;-64
2022/12/14 05:11:13;;;;;;;16.97;7.97;;;-3.50;1.00;;;;;;5023902;28;20278;-64
2022/12/14 05:14:05;;;;;;;16.93;8.63;;;-3.50;1.00;;;;;;5043437;28;20195;-64
2022/12/14 05:16:35;;;;;;;15.80;8.77;;;-3.50;1.00;;;;;;5039371;28;20275;-65
2022/12/14 05:19:07;;;;;;;16.03;8.03;;;-3.50;1.00;;;;;;5042662;28;20199;-65
2022/12/14 05:21:46;;;;;;;14.37;8.70;;;-3.50;1.00;;;;;;5040716;28;20198;-64
2022/12/14 05:24:14;;;;;;;14.37;8.40;;;-3.50;1.00;;;;;;5037352;28;20328;-64
2022/12/14 05:26:41;;;;;;;15.80;9.00;;;-3.50;1.00;;;;;;5017523;28;20200;-68
2022/12/14 05:29:08;;;;;;;18.40;9.67;;;-3.50;1.00;;;;;;5042398;28;20188;-64
2022/12/14 05:31:35;;;;;;;16.17;8.90;;;-3.50;1.00;;;;;;5040586;28;20207;-65
2022/12/14 05:34:02;;;;;;;14.47;8.47;;;-3.50;1.00;;;;;;5040785;28;20310;-64
2022/12/14 05:36:29;;;;;;;15.07;9.10;;;-3.40;1.00;;;;;;5040832;28;20288;-65
2022/12/14 05:38:56;;;;;;;16.67;8.37;;;-3.40;1.00;;;;;;5035789;28;20303;-64
2022/12/14 05:41:23;;;;;;;15.90;8.73;;;-3.50;1.00;;;;;;5034093;28;20192;-65
2022/12/14 05:43:50;;;;;;;13.63;7.73;;;-3.50;1.00;;;;;;5034457;28;20203;-64
2022/12/14 05:46:17;;;;;;;13.57;8.43;;;-3.50;1.00;;;;;;5031026;28;20713;-64
2022/12/14 05:48:44;;;;;;;14.40;8.60;;;-3.50;1.00;;;;;;5034388;28;20219;-64
2022/12/14 05:51:15;;;;;;;15.90;8.93;;;-3.50;1.00;;;;;;5041594;28;20623;-64
2022/12/14 05:53:42;;;;;;;14.70;8.50;;;-3.50;1.00;;;;;;5036976;28;20840;-64
2022/12/14 05:56:10;;;;;;;15.93;9.23;;;-3.50;1.00;;;;;;5035813;28;20204;-64
2022/12/14 05:58:38;;;;;;;14.07;8.73;;;-3.50;1.00;;;;;;5042556;28;20644;-64
2022/12/14 06:01:07;;;;;;;15.23;8.90;;;-3.60;1.00;;;;;;5057411;28;20294;-64
2022/12/14 06:03:41;;;;;;;14.13;8.77;;;-3.60;1.00;;;;;;5036183;28;20281;-64
2022/12/14 06:06:10;;;;;;;14.83;8.10;;;-3.60;1.00;;;;;;5041578;28;20565;-64
2022/12/14 06:08:40;;;;;;;19.57;9.30;;;-3.60;1.00;;;;;;5014760;28;20706;-64
2022/12/14 06:11:10;;;;;;;15.20;8.43;;;-3.60;1.00;;;;;;5032352;28;20642;-64
2022/12/14 06:13:38;;;;;;;15.07;9.17;;;-3.60;1.00;;;;;;5045935;28;20184;-62
2022/12/14 06:16:11;;;;;;;15.30;8.80;;;-3.60;1.00;;;;;;5050463;28;20199;-62
2022/12/14 06:18:50;;;;;;;16.70;8.97;;;-3.70;1.00;;;;;;5042727;28;20199;-62
2022/12/14 06:21:19;;;;;;;15.30;8.57;;;-3.70;1.00;;;;;;5039087;28;20413;-61
2022/12/14 06:23:47;;;;;;;15.43;7.60;;;-3.70;1.00;;;;;;5039231;28;20708;-62
2022/12/14 06:26:15;;;;;;;15.13;8.80;;;-3.70;1.00;;;;;;5044866;28;20194;-62
2022/12/14 06:28:42;;;;;;;15.57;9.17;;;-3.80;1.00;;;;;;5044026;28;20665;-61
2022/12/14 06:31:24;;;;;;;13.37;8.20;;;-3.80;1.00;;;;;;5035045;28;20249;-61
2022/12/14 06:33:52;;;;;;;17.23;10.27;;;-3.80;1.00;;;;;;5030267;28;20273;-61
2022/12/14 06:36:22;;;;;;;14.23;9.27;;;-3.70;1.00;;;;;;5052873;28;21056;-61
2022/12/14 06:38:53;;;;;;;15.93;8.67;;;-3.70;1.00;;;;;;5036110;28;20219;-61
2022/12/14 06:41:21;;;;;;;16.80;9.90;;;-3.80;1.00;;;;;;5042653;28;20674;-62
2022/12/14 06:43:48;;;;;;;16.77;10.30;;;-3.80;1.00;;;;;;5036151;28;20196;-61
2022/12/14 06:46:18;;;;;;;27.80;13.73;;;-3.70;1.00;;;;;;5040484;28;20196;-61
2022/12/14 06:48:53;;;;;;;21.17;11.67;;;-3.80;1.00;;;;;;5051724;28;20245;-60
2022/12/14 06:51:22;;;;;;;22.37;11.93;;;-3.80;1.00;;;;;;5039101;28;20283;-61
2022/12/14 06:53:50;;;;;;;29.20;12.53;;;-3.80;1.00;;;;;;5049892;28;20247;-60
2022/12/14 06:56:18;;;;;;;20.90;12.00;;;-3.90;1.00;;;;;;5041006;28;20195;-61
2022/12/14 06:58:46;;;;;;;24.23;12.70;;;-3.90;1.00;;;;;;5050742;28;20279;-61
2022/12/14 07:01:19;;;;;;;23.30;12.37;;;-3.90;1.00;;;;;;5038721;28;20232;-60
2022/12/14 07:03:48;;;;;;;20.17;11.33;;;-3.90;1.00;;;;;;5035007;28;20763;-61
2022/12/14 07:06:15;;;;;;;15.53;9.67;;;-3.90;1.00;;;;;;5037593;28;20219;-61
2022/12/14 07:08:42;;;;;;;13.70;8.60;;;-3.90;1.00;;;;;;5028075;28;20197;-62
2022/12/14 07:11:11;;;;;;;12.70;8.43;;;-3.80;1.00;;;;;;5033845;28;20214;-60
2022/12/14 07:13:39;;;;;;;13.33;8.57;;;-3.80;1.00;;;;;;5039917;28;20662;-61
2022/12/14 07:16:08;;;;;;;13.80;8.33;;;-3.80;1.00;;;;;;5017615;28;20221;-61
2022/12/14 07:18:36;;;;;;;31.23;13.77;;;-3.80;1.00;;;;;;5031611;28;20222;-60
2022/12/14 07:21:08;;;;;;;22.00;12.10;;;-3.70;1.00;;;;;;5037693;28;20678;-61
2022/12/14 07:23:37;;;;;;;14.93;8.90;;;-3.70;1.00;;;;;;5016241;28;20226;-64
2022/12/14 07:26:09;;;;;;;14.77;7.80;;;-3.70;1.00;;;;;;5040391;28;20227;-64
2022/12/14 07:28:37;;;;;;;13.63;7.60;;;-3.60;1.00;;;;;;5035631;28;20191;-63
2022/12/14 07:31:07;;;;;;;12.47;7.33;;;-3.60;1.00;;;;;;5034822;28;20183;-64
2022/12/14 07:33:34;;;;;;;16.77;8.27;;;-3.60;1.00;;;;;;5036430;28;20290;-63
2022/12/14 07:36:02;;;;;;;13.70;7.23;;;-3.60;1.00;;;;;;5035582;28;20201;-64
2022/12/14 07:38:29;;;;;;;11.57;7.20;;;-3.60;1.00;;;;;;5037322;28;20219;-64
2022/12/14 07:41:04;;;;;;;12.83;7.53;;;-3.60;1.00;;;;;;5040500;28;20712;-64
2022/12/14 07:43:32;;;;;;;13.80;7.03;;;-3.50;1.00;;;;;;5040330;28;20217;-63
2022/12/14 07:46:04;;;;;;;14.07;7.20;;;-3.50;1.00;;;;;;5034049;28;20266;-63
2022/12/14 07:48:32;;;;;;;10.23;7.43;;;-3.50;1.00;;;;;;5038169;28;20615;-62
2022/12/14 07:51:07;;;;;;;11.40;6.97;;;-3.50;1.00;;;;;;5031951;28;20193;-64
2022/12/14 07:53:36;;;;;;;13.90;7.40;;;-3.50;1.00;;;;;;5034496;28;20195;-63
2022/12/14 07:56:11;;;;;;;10.30;6.50;;;-3.50;1.00;;;;;;5041050;28;20278;-62
2022/12/14 07:58:38;;;;;;;13.50;7.30;;;-3.50;1.00;;;;;;5036131;28;20183;-65
2022/12/14 08:01:12;;;;;;;20.93;9.57;;;-3.50;1.00;;;;;;5035129;28;20242;-61
2022/12/14 08:03:41;;;;;;;27.63;12.73;;;-3.50;1.00;;;;;;5027165;28;20625;-60
2022/12/14 08:06:10;;;;;;;21.10;10.80;;;-3.40;1.00;;;;;;5027998;28;20729;-62
2022/12/14 08:08:38;;;;;;;25.43;10.10;;;-3.40;1.00;;;;;;5036245;28;20673;-61
2022/12/14 08:11:06;;;;;;;20.90;11.13;;;-3.40;1.00;;;;;;5033762;28;20562;-65
2022/12/14 08:13:34;;;;;;;14.37;9.17;;;-3.30;1.00;;;;;;5036884;28;20563;-64
2022/12/14 08:16:06;;;;;;;14.47;7.73;;;-3.30;1.00;;;;;;5037850;28;20270;-65
2022/12/14 08:18:33;;;;;;;15.63;8.80;;;-3.30;1.00;;;;;;5037167;28;20200;-63
2022/12/14 08:21:01;;;;;;;27.77;11.90;;;-3.20;1.00;;;;;;5038536;28;21002;-64
2022/12/14 08:23:28;;;;;;;23.77;12.10;;;-3.10;1.00;;;;;;5043540;28;20222;-63
2022/12/14 08:25:57;;;;;;;38.73;17.63;;;-3.10;1.00;;;;;;5042991;28;20195;-62
2022/12/14 08:28:25;;;;;;;20.67;12.00;;;-3.10;1.00;;;;;;5039247;28;20345;-64
2022/12/14 08:30:53;;;;;;;15.47;9.00;;;-3.10;1.00;;;;;;5041387;28;20191;-63
2022/12/14 08:33:20;;;;;;;17.07;9.03;;;-3.00;1.00;;;;;;5028705;28;20180;-63
2022/12/14 08:35:47;;;;;;;14.17;8.93;;;-2.90;1.00;;;;;;5020171;28;20298;-63
2022/12/14 08:38:14;;;;;;;14.13;8.50;;;-2.90;1.00;;;;;;5043440;28;20667;-63
2022/12/14 08:40:41;;;;;;;14.30;9.07;;;-2.80;1.00;;;;;;5040563;28;20195;-63
2022/12/14 08:43:09;;;;;;;13.60;8.87;;;-2.90;1.00;;;;;;5045554;28;20219;-63
2022/12/14 08:45:36;;;;;;;14.20;7.87;;;-2.80;1.00;;;;;;5045737;28;20304;-64
2022/12/14 08:48:03;;;;;;;10.53;7.50;;;-2.80;1.00;;;;;;5039540;28;20275;-62
2022/12/14 08:50:30;;;;;;;20.13;7.83;;;-2.70;1.00;;;;;;5042499;28;20714;-61
2022/12/14 08:52:57;;;;;;;14.00;7.57;;;-2.70;1.00;;;;;;5037649;28;20615;-62
2022/12/14 08:55:24;;;;;;;10.70;7.07;;;-2.60;1.00;;;;;;5047436;28;20197;-63
2022/12/14 08:57:57;;;;;;;14.00;6.90;;;-2.50;1.00;;;;;;5044949;28;20196;-68
2022/12/14 09:00:23;;;;;;;11.27;7.33;;;-2.50;1.00;;;;;;5038284;28;20192;-62
2022/12/14 09:02:50;;;;;;;11.97;7.60;;;-2.40;1.00;;;;;;5021508;28;20876;-63
2022/12/14 09:05:18;;;;;;;10.63;6.47;;;-2.50;1.00;;;;;;5042555;28;20302;-64
2022/12/14 09:07:45;;;;;;;11.67;7.53;;;-2.50;1.00;;;;;;5034892;28;20230;-62
2022/12/14 09:10:12;;;;;;;11.87;6.87;;;-2.60;1.00;;;;;;5040588;28;20191;-61
2022/12/14 09:12:39;;;;;;;10.23;6.87;;;-2.50;1.00;;;;;;5036499;28;20314;-61
2022/12/14 09:15:07;;;;;;;11.30;7.23;;;-2.50;1.00;;;;;;5042077;28;20242;-60
2022/12/14 09:17:34;;;;;;;12.93;7.07;;;-2.50;1.00;;;;;;5046348;28;20211;-61
2022/12/14 09:20:01;;;;;;;12.33;6.77;;;-2.40;1.00;;;;;;5037264;28;20253;-62
2022/12/14 09:22:28;;;;;;;11.30;6.60;;;-2.40;1.00;;;;;;5037696;28;20200;-62
2022/12/14 09:24:55;;;;;;;11.47;6.77;;;-2.40;1.00;;;;;;5041538;28;20716;-60
2022/12/14 09:27:21;;;;;;;15.47;7.37;;;-2.40;1.00;;;;;;5036175;28;20191;-61
2022/12/14 09:29:49;;;;;;;14.10;7.77;;;-2.40;1.00;;;;;;5040503;28;20384;-61
2022/12/14 09:32:16;;;;;;;11.80;7.10;;;-2.40;1.00;;;;;;5043256;28;20274;-60
2022/12/14 09:34:43;;;;;;;11.00;6.80;;;-2.30;1.00;;;;;;5037714;28;20650;-60
2022/12/14 09:37:11;;;;;;;12.53;7.13;;;-2.20;1.00;;;;;;5025714;28;20191;-61
2022/12/14 09:39:38;;;;;;;16.47;7.20;;;-2.20;1.00;;;;;;5043136;28;20218;-60
2022/12/14 09:42:40;;;;;;;14.27;8.87;;;-2.20;1.00;;;;;;5040258;28;20215;-61
2022/12/14 09:45:24;;;;;;;11.70;7.60;;;-2.00;1.00;;;;;;5022329;28;20209;-62
2022/12/14 09:48:17;;;;;;;11.47;7.10;;;-1.90;1.00;;;;;;5039430;28;20187;-60
2022/12/14 09:50:48;;;;;;;13.93;7.50;;;-1.80;1.00;;;;;;5036565;28;20212;-61
2022/12/14 09:53:17;;;;;;;14.60;7.30;;;-1.70;1.00;;;;;;5025042;28;20188;-60
2022/12/14 09:55:54;;;;;;;11.90;7.83;;;-1.70;1.00;;;;;;5033795;28;20646;-61
2022/12/14 09:58:29;;;;;;;10.47;7.37;;;-1.80;1.00;;;;;;5039903;28;20272;-62
2022/12/14 10:01:17;;;;;;;9.27;6.67;;;-1.70;1.00;;;;;;5002997;28;20880;-62
2022/12/14 10:04:08;;;;;;;12.03;7.93;;;-1.80;1.00;;;;;;5038176;28;20310;-60
2022/12/14 10:07:12;;;;;;;15.70;8.20;;;-1.80;1.00;;;;;;5025829;28;20207;-61
2022/12/14 10:09:48;;;;;;;13.50;8.67;;;-1.90;1.00;;;;;;5038764;28;20366;-62
2022/12/14 10:12:27;;;;;;;15.70;7.37;;;-1.80;1.00;;;;;;5038747;28;20217;-61
2022/12/14 10:15:18;;;;;;;13.80;8.00;;;-1.90;1.00;;;;;;5043570;28;20218;-63
2022/12/14 10:17:51;;;;;;;13.03;7.97;;;-1.80;1.00;;;;;;5044159;28;20371;-62
2022/12/14 10:20:41;;;;;;;14.07;8.40;;;-1.70;1.00;;;;;;5042685;28;20211;-63
2022/12/14 10:23:15;;;;;;;12.47;7.77;;;-1.70;1.00;;;;;;5042152;28;20642;-63
2022/12/14 10:25:51;;;;;;;14.00;8.40;;;-1.60;1.00;;;;;;5043953;28;20554;-62
2022/12/14 10:28:42;;;;;;;14.67;8.20;;;-1.70;1.00;;;;;;5045479;28;20199;-61
2022/12/14 10:31:15;;;;;;;15.13;8.57;;;-1.60;1.00;;;;;;5036675;28;21595;-61
2022/12/14 10:33:45;;;;;;;16.47;9.17;;;-1.70;1.00;;;;;;5041242;28;20419;-62
2022/12/14 10:36:24;;;;;;;15.03;9.03;;;-1.80;1.00;;;;;;5034177;28;20192;-64
2022/12/14 10:38:58;;;;;;;16.03;8.80;;;-1.80;1.00;;;;;;5037594;28;20554;-63
2022/12/14 10:41:31;;;;;;;18.07;9.17;;;-1.90;1.00;;;;;;5033724;28;20611;-63
2022/12/14 10:44:19;;;;;;;15.37;9.47;;;-1.90;1.00;;;;;;5048760;28;20203;-65
2022/12/14 10:47:00;;;;;;;13.90;8.57;;;-1.70;1.00;;;;;;5053500;28;20607;-63
2022/12/14 10:49:45;;;;;;;16.23;9.13;;;-1.30;1.00;;;;;;5033671;28;20199;-62
2022/12/14 10:52:17;;;;;;;17.43;11.17;;;-1.10;1.00;;;;;;5014672;28;20195;-61
2022/12/14 10:54:52;;;;;;;13.93;8.60;;;-1.10;1.00;;;;;;5040584;28;20586;-61
2022/12/14 10:57:23;;;;;;;14.50;9.47;;;-1.20;1.00;;;;;;5034064;28;20219;-62
2022/12/14 10:59:51;;;;;;;14.13;8.27;;;-1.30;1.00;;;;;;5042624;28;20216;-60
2022/12/14 11:02:39;;;;;;;14.93;9.10;;;-1.30;1.00;;;;;;5040688;28;20239;-61
2022/12/14 11:05:22;;;;;;;14.73;8.73;;;-1.30;1.00;;;;;;5018647;28;20687;-61
2022/12/14 11:07:49;;;;;;;13.40;8.67;;;-1.20;1.00;;;;;;5046833;28;20195;-60
2022/12/14 11:10:29;;;;;;;14.50;9.70;;;-1.10;1.00;;;;;;5042129;28;20702;-61
2022/12/14 11:13:05;;;;;;;14.90;9.63;;;-0.90;1.00;;;;;;5042939;28;20747;-62
2022/12/14 11:15:39;;;;;;;12.50;7.70;;;-0.80;1.00;;;;;;5023529;28;20207;-61
2022/12/14 11:18:15;;;;;;;13.80;8.23;;;-0.90;1.00;;;;;;5042979;28;20215;-60
2022/12/14 11:21:09;;;;;;;13.33;10.07;;;-0.80;1.00;;;;;;5039300;28;20614;-64
2022/12/14 11:23:41;;;;;;;16.47;9.13;;;-0.80;1.00;;;;;;5041510;28;20208;-63
2022/12/14 11:26:12;;;;;;;13.73;8.90;;;-0.80;1.00;;;;;;5037250;28;20203;-62
2022/12/14 11:28:47;;;;;;;13.37;8.17;;;-0.70;1.00;;;;;;5046129;28;20192;-61
2022/12/14 11:31:19;;;;;;;14.10;8.07;;;-0.60;1.00;;;;;;5001579;28;20216;-60
2022/12/14 11:33:55;;;;;;;12.40;8.13;;;-0.40;1.00;;;;;;5034387;28;20195;-62
2022/12/14 11:36:25;;;;;;;14.37;9.27;;;-0.30;1.00;;;;;;5033664;28;20196;-62
2022/12/14 11:39:00;;;;;;;28.80;18.23;;;-0.30;1.00;;;;;;5028641;28;20211;-61
2022/12/14 11:41:37;;;;;;;13.37;9.43;;;-0.30;1.00;;;;;;5033951;28;20715;-61
2022/12/14 11:44:13;;;;;;;14.10;8.57;;;-0.20;1.00;;;;;;5033988;28;20285;-63
2022/12/14 11:46:57;;;;;;;14.20;8.83;;;0.10;1.00;;;;;;5032246;28;20185;-60
2022/12/14 11:49:27;;;;;;;13.43;8.87;;;0.30;1.00;;;;;;5030242;28;20670;-61
2022/12/14 11:52:00;;;;;;;13.50;7.57;;;0.40;1.00;;;;;;5037890;28;20266;-63
2022/12/14 11:54:28;;;;;;;15.83;8.43;;;0.30;1.00;;;;;;5038344;28;20230;-62
2022/12/14 11:57:05;;;;;;;13.20;8.53;;;0.30;1.00;;;;;;5039652;28;20242;-64
2022/12/14 11:59:44;;;;;;;13.40;8.27;;;0.10;1.00;;;;;;5033395;28;20196;-64
2022/12/14 12:02:32;;;;;;;14.40;8.30;;;-0.10;1.00;;;;;;5039189;28;20675;-61
2022/12/14 12:05:04;;;;;;;16.87;8.80;;;-0.10;1.00;;;;;;5039848;28;20265;-60
2022/12/14 12:07:33;;;;;;;16.97;8.63;;;-0.10;1.00;;;;;;5030421;28;20234;-65
2022/12/14 12:10:14;;;;;;;15.67;8.80;;;0.00;1.00;;;;;;5035875;28;20709;-61
2022/12/14 12:12:49;;;;;;;22.27;13.90;;;0.30;1.00;;;;;;5037774;28;20622;-62
2022/12/14 12:15:24;;;;;;;13.47;8.87;;;0.50;1.00;;;;;;5035922;28;20278;-61
2022/12/14 12:17:56;;;;;;;15.37;9.33;;;1.00;1.00;;;;;;5038673;28;20781;-62
2022/12/14 12:20:36;;;;;;;15.97;9.30;;;1.30;1.00;;;;;;5050171;28;20298;-62
2022/12/14 12:23:09;;;;;;;15.10;10.53;;;1.50;1.00;;;;;;5037844;28;20614;-61
2022/12/14 12:25:39;;;;;;;14.30;9.77;;;1.70;1.00;;;;;;5028791;28;20582;-62
2022/12/14 12:28:21;;;;;;;14.87;9.80;;;1.80;1.00;;;;;;5035073;28;20195;-62
2022/12/14 12:30:56;;;;;;;15.13;9.87;;;1.80;1.00;;;;;;5033842;28;20663;-61
2022/12/14 12:33:43;;;;;;;14.30;10.20;;;1.80;1.00;;;;;;5039470;28;20471;-62
2022/12/14 12:36:15;;;;;;;15.73;9.87;;;1.90;1.00;;;;;;5044993;28;20219;-63
2022/12/14 12:39:01;;;;;;;15.00;9.97;;;2.60;1.00;;;;;;5051687;28;20223;-60
2022/12/14 12:41:40;;;;;;;16.47;10.90;;;2.80;1.00;;;;;;5041373;28;20287;-60
2022/12/14 12:44:40;;;;;;;14.80;10.07;;;3.70;1.00;;;;;;5045502;28;20227;-58
2022/12/14 12:47:27;;;;;;;14.80;10.63;;;4.10;1.00;;;;;;5047228;28;20640;-63
2022/12/14 12:50:18;;;;;;;16.50;11.30;;;4.70;1.00;;;;;;5043724;28;20237;-60
2022/12/14 12:53:02;;;;;;;19.20;14.30;;;4.90;1.00;;;;;;5032934;28;20602;-58
2022/12/14 12:55:39;;;;;;;13.77;9.53;;;5.00;1.00;;;;;;5045076;28;20196;-61
2022/12/14 12:58:12;;;;;;;15.93;11.57;;;4.90;1.00;;;;;;5044384;28;20199;-60
2022/12/14 13:00:40;;;;;;;18.10;12.37;;;4.90;1.00;;;;;;5030758;28;20230;-61
2022/12/14 13:03:22;;;;;;;16.57;10.17;;;4.80;1.00;;;;;;5035020;28;20246;-61
2022/12/14 13:05:52;;;;;;;18.23;10.73;;;4.40;1.00;;;;;;5038928;28;20357;-60
2022/12/14 13:08:27;;;;;;;21.40;13.80;;;4.20;1.00;;;;;;5041252;28;20191;-60
2022/12/14 13:11:00;;;;;;;28.17;15.10;;;4.00;1.00;;;;;;5031934;28;20191;-60
2022/12/14 13:13:54;;;;;;;21.20;14.70;;;3.70;1.00;;;;;;5035740;28;20199;-60
2022/12/14 13:16:48;;;;;;;26.00;16.53;;;3.10;1.00;;;;;;5034725;28;20199;-61
2022/12/14 13:19:41;;;;;;;19.17;13.50;;;3.30;1.00;;;;;;5039613;28;20203;-62
2022/12/14 13:22:25;;;;;;;18.33;10.57;;;2.50;1.00;;;;;;5042047;28;20191;-62
2022/12/14 13:24:54;;;;;;;17.63;10.63;;;2.10;1.00;;;;;;5023903;28;20290;-61
2022/12/14 13:28:02;;;;;;;14.00;9.80;;;1.80;1.00;;;;;;5014591;28;20586;-61
2022/12/14 13:31:16;;;;;;;14.40;8.80;;;1.60;1.00;;;;;;5052314;28;20199;-60
2022/12/14 13:33:57;;;;;;;19.20;10.83;;;1.50;1.00;;;;;;5022154;28;20220;-62
2022/12/14 13:36:36;;;;;;;14.00;9.40;;;1.20;1.00;;;;;;5041405;28;20195;-63